LGKF Airport Information

Runway Information
Runway 14 Length 7992 ft width 148 ft
Elevation 32 ft Threshold 0 ft Heading 146
Runway 32 Length 7992 ft Width 148 ft
Elevation 50 ft Threshold 912 ft Heading 326
Airport Frequencies
Type A/G Name RDO Frequency 563.7 MHZ
Type AFIS Name AFIS INFO Frequency 122.25 MHZ
Airport Navaids
Type NDB Name Kefallinia Frequency 318 KHZ
Type VOR-DME Name Kefallinia Frequency 115500 KHZ
Airport Weather Information & NOTAM
ADDS - METARS form results

(0428 UTC 06 August 2021)
Data provider http://aviationweather.gov/metar/data/
 
Forecast for: LGKF (KEFALLINIA , GR)
Text: TAF LGKF 060200Z 0603/0612 32015KT 9999 FEW025
Forecast period: 0300 to 1200 UTC 06 August 2021
Forecast type: FROM: standard forecast or significant change
Winds: from the NW (320 degrees) at 17 MPH (15 knots; 7.7 m/s)
Visibility: 6 or more miles (10+ km)
Ceiling: at least 12,000 feet AGL
Clouds: few clouds at 2500 feet AGL
Weather: no significant weather forecast for this period
Text: TEMPO 0609/0612 32015G25KT
Forecast period: 0900 to 1200 UTC 06 August 2021
Forecast type: TEMPORARY: The following changes expected for less than half the time period
Winds: from the NW (320 degrees) at 17 MPH (15 knots; 7.7 m/s)
gusting to 29 MPH (25 knots; 12.9 m/s)
Visibility: missing
Ceiling: unknown
Clouds: missing
Weather: no significant weather forecast for this period